createdAt,value
2022-09-23T00:01:01.650Z,2.10
2022-09-23T00:03:51.572Z,2.80
2022-09-23T00:06:41.315Z,1.70
2022-09-23T00:09:31.935Z,2.58
2022-09-23T00:12:21.070Z,1.20
2022-09-23T00:15:11.709Z,2.30
2022-09-23T00:18:00.581Z,1.30
2022-09-23T00:20:50.095Z,1.50
2022-09-23T00:23:40.702Z,2.40
2022-09-23T00:26:31.239Z,3.47
2022-09-23T00:29:20.847Z,3.55
2022-09-23T00:32:10.005Z,1.80
2022-09-23T00:34:59.363Z,2.38
2022-09-23T00:37:48.570Z,2.58
2022-09-23T00:40:37.891Z,2.28
2022-09-23T00:43:41.755Z,1.80
2022-09-23T00:46:37.247Z,1.38
2022-09-23T00:49:30.763Z,1.55
2022-09-23T00:52:24.508Z,2.17
2022-09-23T00:55:19.416Z,2.05
2022-09-23T00:58:12.086Z,2.78
2022-09-23T01:01:04.399Z,3.00
2022-09-23T01:03:56.222Z,1.63
2022-09-23T01:06:45.661Z,1.42
2022-09-23T01:09:35.545Z,2.22
2022-09-23T01:12:48.345Z,1.23
2022-09-23T01:15:45.549Z,0.85
2022-09-23T01:18:43.941Z,1.52
2022-09-23T01:21:43.909Z,1.20
2022-09-23T01:24:49.639Z,1.10
2022-09-23T01:27:52.592Z,1.50
2022-09-23T01:30:49.812Z,1.63
2022-09-23T01:33:47.588Z,1.02
2022-09-23T01:36:42.999Z,1.65
2022-09-23T01:39:37.149Z,1.88
2022-09-23T01:42:32.950Z,2.00
2022-09-23T01:45:27.557Z,1.33
2022-09-23T01:48:22.885Z,1.67
2022-09-23T01:51:16.740Z,2.65
2022-09-23T01:54:08.677Z,3.40
2022-09-23T01:57:04.258Z,3.42
2022-09-23T01:59:57.800Z,1.17
2022-09-23T02:02:52.958Z,1.08
2022-09-23T02:05:48.018Z,3.88
2022-09-23T02:08:43.486Z,2.22
2022-09-23T02:11:36.447Z,2.40
2022-09-23T02:14:31.010Z,1.27
2022-09-23T02:17:26.814Z,1.30
2022-09-23T02:20:21.163Z,1.20
2022-09-23T02:23:14.871Z,1.30
2022-09-23T02:26:10.499Z,3.72
2022-09-23T02:29:09.867Z,2.00
2022-09-23T02:32:04.119Z,1.33
2022-09-23T02:35:01.334Z,4.72
2022-09-23T02:37:54.513Z,4.55
2022-09-23T02:40:51.233Z,1.65
2022-09-23T02:43:45.324Z,1.80
2022-09-23T02:46:34.588Z,2.03
2022-09-23T02:49:24.953Z,3.83
2022-09-23T02:52:15.094Z,2.03
2022-09-23T02:55:05.153Z,1.83
2022-09-23T02:57:56.147Z,2.30
2022-09-23T03:00:51.516Z,3.95
2022-09-23T03:03:43.349Z,2.95
2022-09-23T03:06:34.295Z,2.40
2022-09-23T03:09:27.392Z,2.33
2022-09-23T03:12:20.527Z,1.95
2022-09-23T03:15:17.903Z,1.20
2022-09-23T03:18:12.072Z,1.95
2022-09-23T03:21:04.778Z,1.75
2022-09-23T03:23:54.841Z,4.85
2022-09-23T03:26:46.338Z,3.15
2022-09-23T03:29:37.866Z,2.10
2022-09-23T03:32:29.856Z,1.70
2022-09-23T03:35:19.227Z,2.08
2022-09-23T03:38:10.161Z,2.25
2022-09-23T03:41:01.107Z,1.63
2022-09-23T03:43:51.944Z,2.50
2022-09-23T03:46:44.386Z,1.27
2022-09-23T03:49:39.443Z,2.17
2022-09-23T03:52:29.613Z,1.98
2022-09-23T03:55:19.550Z,4.85
2022-09-23T03:58:09.294Z,1.75
2022-09-23T04:00:58.802Z,1.55
2022-09-23T04:03:49.633Z,2.45
2022-09-23T04:06:40.516Z,1.52
2022-09-23T04:09:29.698Z,5.03
2022-09-23T04:12:19.470Z,2.55
2022-09-23T04:15:09.366Z,1.73
2022-09-23T04:17:58.558Z,1.85
2022-09-23T04:20:47.766Z,1.90
2022-09-23T04:23:38.702Z,2.20
2022-09-23T04:26:27.842Z,2.13
2022-09-23T04:29:17.320Z,2.42
2022-09-23T04:32:07.075Z,3.03
2022-09-23T04:34:56.534Z,2.17
2022-09-23T04:37:46.578Z,3.08
2022-09-23T04:40:37.897Z,2.33
2022-09-23T04:43:26.881Z,1.88
2022-09-23T04:46:16.866Z,2.65
2022-09-23T04:49:06.524Z,4.60
2022-09-23T04:51:56.376Z,3.25
2022-09-23T04:54:45.731Z,2.72
2022-09-23T04:57:36.554Z,5.50
2022-09-23T05:00:27.257Z,2.20
2022-09-23T05:03:17.266Z,2.28
2022-09-23T05:06:06.874Z,3.58
2022-09-23T05:08:56.996Z,4.05
2022-09-23T05:11:47.061Z,2.25
2022-09-23T05:14:39.181Z,8.60
2022-09-23T05:17:33.856Z,5.53
2022-09-23T05:20:24.093Z,2.85
2022-09-23T05:23:13.437Z,2.17
2022-09-23T05:26:03.909Z,4.90
2022-09-23T05:28:53.002Z,2.50
2022-09-23T05:31:43.554Z,4.60
2022-09-23T05:34:33.141Z,2.53
2022-09-23T05:37:22.585Z,1.67
2022-09-23T05:40:12.170Z,2.08
2022-09-23T05:43:01.749Z,3.50
2022-09-23T05:45:50.933Z,4.32
2022-09-23T05:48:41.946Z,2.53
2022-09-23T05:51:31.947Z,2.00
2022-09-23T05:54:21.237Z,2.90
2022-09-23T05:57:10.698Z,4.75
2022-09-23T06:00:00.102Z,4.65
2022-09-23T06:02:50.495Z,4.88
2022-09-23T06:05:41.330Z,7.40
2022-09-23T06:08:30.763Z,6.18
2022-09-23T06:11:21.966Z,3.60
2022-09-23T06:14:13.648Z,3.92
2022-09-23T06:17:03.460Z,4.30
2022-09-23T06:19:53.014Z,3.13
2022-09-23T06:22:43.596Z,2.30
2022-09-23T06:25:32.725Z,4.15
2022-09-23T06:28:21.771Z,3.85
2022-09-23T06:31:13.991Z,3.85
2022-09-23T06:34:11.520Z,3.03
2022-09-23T06:37:12.957Z,3.78
2022-09-23T06:40:05.852Z,5.57
2022-09-23T06:42:59.880Z,2.92
2022-09-23T06:45:49.156Z,3.15
2022-09-23T06:48:42.786Z,8.18
2022-09-23T06:51:34.964Z,3.78
2022-09-23T06:54:24.120Z,1.92
2022-09-23T06:57:14.926Z,3.45
2022-09-23T07:00:04.914Z,4.72
2022-09-23T07:02:55.095Z,3.50
2022-09-23T07:05:44.420Z,2.80
2022-09-23T07:08:35.324Z,2.75
2022-09-23T07:11:25.433Z,2.90
2022-09-23T07:14:16.215Z,2.10
2022-09-23T07:17:05.709Z,1.85
2022-09-23T07:19:55.778Z,3.47
2022-09-23T07:22:45.791Z,3.35
2022-09-23T07:25:36.947Z,3.60
2022-09-23T07:28:27.262Z,2.03
2022-09-23T07:31:32.617Z,3.60
2022-09-23T07:34:26.575Z,3.03
2022-09-23T07:37:15.651Z,4.80
2022-09-23T07:40:04.654Z,5.35
2022-09-23T07:42:54.129Z,3.60
2022-09-23T07:45:43.926Z,4.72
2022-09-23T07:48:34.867Z,2.05
2022-09-23T07:51:29.846Z,16.17
2022-09-23T07:54:21.546Z,3.60
2022-09-23T07:57:10.641Z,2.72
2022-09-23T08:00:01.152Z,3.65
2022-09-23T08:02:53.012Z,4.70
2022-09-23T08:05:44.684Z,3.97
2022-09-23T08:08:33.302Z,5.63
2022-09-23T08:11:24.054Z,6.28
2022-09-23T08:14:14.423Z,2.50
2022-09-23T08:17:03.485Z,5.93
2022-09-23T08:19:53.115Z,5.22
2022-09-23T08:22:43.963Z,2.70
2022-09-23T08:25:34.743Z,3.78
2022-09-23T08:28:24.305Z,4.13
2022-09-23T08:31:14.421Z,4.05
2022-09-23T08:34:03.393Z,6.82
2022-09-23T08:36:53.443Z,2.72
2022-09-23T08:39:44.649Z,2.22
2022-09-23T08:42:36.547Z,2.03
2022-09-23T08:45:27.705Z,4.80
2022-09-23T08:48:21.372Z,2.67
2022-09-23T08:51:15.996Z,4.65
2022-09-23T08:54:05.543Z,8.18
2022-09-23T08:56:59.648Z,4.00
2022-09-23T08:59:49.410Z,3.53
2022-09-23T09:02:38.797Z,2.97
2022-09-23T09:05:29.240Z,2.90
2022-09-23T09:08:25.237Z,3.47
2022-09-23T09:11:16.852Z,3.92
2022-09-23T09:14:24.929Z,4.32
2022-09-23T09:17:24.903Z,3.63
2022-09-23T09:20:24.884Z,2.25
2022-09-23T09:23:23.114Z,6.65
2022-09-23T09:26:17.972Z,2.20
2022-09-23T09:29:31.184Z,2.85
2022-09-23T09:32:48.743Z,3.20
2022-09-23T09:35:43.687Z,3.53
2022-09-23T09:38:32.889Z,2.15
2022-09-23T09:41:24.741Z,2.65
2022-09-23T09:44:24.462Z,1.88
2022-09-23T09:47:29.901Z,4.43
2022-09-23T09:50:22.227Z,4.05
2022-09-23T09:53:22.340Z,1.83
2022-09-23T09:56:14.342Z,5.20
2022-09-23T09:59:13.003Z,1.98
2022-09-23T10:02:23.329Z,2.20
2022-09-23T10:05:28.669Z,3.17
2022-09-23T10:08:24.850Z,2.15
2022-09-23T10:11:16.878Z,2.97
2022-09-23T10:14:07.301Z,1.65
2022-09-23T10:17:05.777Z,1.80
2022-09-23T10:20:01.037Z,2.42
2022-09-23T10:22:51.269Z,5.28
2022-09-23T10:25:41.932Z,3.97
2022-09-23T10:28:55.881Z,2.15
2022-09-23T10:31:45.548Z,1.98
2022-09-23T10:34:36.263Z,1.88
2022-09-23T10:37:33.706Z,1.75
2022-09-23T10:40:49.111Z,1.60
2022-09-23T10:43:59.761Z,3.08
2022-09-23T10:46:56.014Z,2.72
2022-09-23T10:50:05.507Z,5.35
2022-09-23T10:53:10.620Z,1.35
2022-09-23T10:56:20.059Z,3.88
2022-09-23T10:59:27.418Z,4.72
2022-09-23T11:02:53.005Z,1.88
2022-09-23T11:05:52.603Z,2.00
2022-09-23T11:08:59.286Z,0.68
2022-09-23T11:12:02.814Z,1.98
2022-09-23T11:15:06.812Z,3.22
2022-09-23T11:18:26.807Z,1.17
2022-09-23T11:21:41.841Z,1.27
2022-09-23T11:24:58.282Z,1.42
2022-09-23T11:28:06.611Z,3.17
2022-09-23T11:31:06.338Z,2.30
2022-09-23T11:34:05.865Z,1.75
2022-09-23T11:37:03.533Z,0.90
2022-09-23T11:40:03.634Z,1.98
2022-09-23T11:43:04.848Z,1.83
2022-09-23T11:46:02.425Z,1.02
2022-09-23T11:49:01.401Z,0.70
2022-09-23T11:52:03.317Z,1.60
2022-09-23T11:55:03.129Z,1.25
2022-09-23T11:58:01.419Z,2.72
2022-09-23T12:01:00.822Z,1.30
2022-09-23T12:04:00.902Z,1.73
2022-09-23T12:07:03.469Z,0.90
2022-09-23T12:10:05.500Z,1.17
2022-09-23T12:13:05.130Z,1.45
2022-09-23T12:16:15.158Z,0.70
2022-09-23T12:19:09.016Z,0.82
2022-09-23T12:22:11.220Z,1.05
2022-09-23T12:25:15.431Z,1.08
2022-09-23T12:28:13.025Z,1.15
2022-09-23T12:31:06.152Z,1.00
2022-09-23T12:33:59.844Z,0.90
2022-09-23T12:36:51.789Z,1.20
2022-09-23T12:39:43.858Z,1.77
2022-09-23T12:42:34.446Z,2.35
2022-09-23T12:45:43.175Z,3.92
2022-09-23T12:49:00.679Z,4.35
2022-09-23T12:52:15.416Z,1.52
2022-09-23T12:55:45.612Z,1.60
2022-09-23T12:59:02.343Z,2.03
2022-09-23T13:01:55.688Z,1.52
2022-09-23T13:05:20.755Z,1.60
2022-09-23T13:08:14.669Z,1.48
2022-09-23T13:11:07.641Z,1.77
2022-09-23T13:13:57.994Z,1.48
2022-09-23T13:16:47.991Z,1.33
2022-09-23T13:19:48.193Z,1.35
2022-09-23T13:23:14.403Z,1.52
2022-09-23T13:26:11.445Z,0.73
2022-09-23T13:29:01.731Z,0.52
2022-09-23T13:31:51.428Z,1.15
2022-09-23T13:34:41.618Z,2.05
2022-09-23T13:37:45.228Z,0.70
2022-09-23T13:40:36.137Z,0.95
2022-09-23T13:43:31.925Z,0.63
2022-09-23T13:46:23.165Z,0.90
2022-09-23T13:49:24.707Z,1.33
2022-09-23T13:52:26.815Z,0.75
2022-09-23T13:55:30.371Z,1.00
2022-09-23T13:58:21.901Z,2.83
2022-09-23T14:01:23.803Z,1.58
2022-09-23T14:04:26.179Z,0.98
2022-09-23T14:07:19.103Z,1.13
2022-09-23T14:10:10.050Z,0.85
2022-09-23T14:13:02.909Z,1.02
2022-09-23T14:15:53.875Z,0.75
2022-09-23T14:18:46.699Z,0.93
2022-09-23T14:21:37.547Z,1.02
2022-09-23T14:24:33.213Z,1.25
2022-09-23T14:27:28.769Z,0.82
2022-09-23T14:30:19.677Z,1.17
2022-09-23T14:33:11.966Z,0.90
2022-09-23T14:36:06.991Z,0.80
2022-09-23T14:39:02.433Z,1.40
2022-09-23T14:41:52.103Z,0.90
2022-09-23T14:44:41.505Z,1.75
2022-09-23T14:47:33.260Z,1.10
2022-09-23T14:50:40.831Z,1.05
2022-09-23T14:53:42.611Z,1.05
2022-09-23T14:56:43.977Z,2.53
2022-09-23T14:59:36.123Z,2.92
2022-09-23T15:02:35.336Z,3.13
2022-09-23T15:05:32.616Z,0.75
2022-09-23T15:08:25.435Z,1.00
2022-09-23T15:11:14.220Z,1.38
2022-09-23T15:14:33.152Z,2.58
2022-09-23T15:17:25.577Z,1.35
2022-09-23T15:20:25.017Z,2.75
2022-09-23T15:23:35.774Z,1.45
2022-09-23T15:26:26.449Z,2.13
2022-09-23T15:29:15.574Z,1.85
2022-09-23T15:32:08.594Z,0.77
2022-09-23T15:34:57.543Z,1.60
2022-09-23T15:37:48.966Z,1.77
2022-09-23T15:40:39.561Z,1.00
2022-09-23T15:43:28.399Z,1.95
2022-09-23T15:46:20.762Z,1.75
2022-09-23T15:49:16.437Z,2.08
2022-09-23T15:52:07.224Z,2.22
2022-09-23T15:54:57.973Z,1.27
2022-09-23T15:57:47.828Z,1.10
2022-09-23T16:00:37.969Z,1.42
2022-09-23T16:03:30.262Z,1.60
2022-09-23T16:06:20.713Z,1.67
2022-09-23T16:09:10.501Z,1.60
2022-09-23T16:12:02.798Z,1.17
2022-09-23T16:14:51.642Z,2.03
2022-09-23T16:17:42.101Z,1.52
2022-09-23T16:20:31.870Z,1.58
2022-09-23T16:23:37.776Z,1.90
2022-09-23T16:26:29.856Z,2.38
2022-09-23T16:29:20.351Z,2.30
2022-09-23T16:32:09.586Z,2.75
2022-09-23T16:34:59.752Z,1.30
2022-09-23T16:37:48.908Z,2.17
2022-09-23T16:40:37.709Z,1.20
2022-09-23T16:43:31.704Z,1.77
2022-09-23T16:46:22.775Z,2.42
2022-09-23T16:49:14.328Z,1.95
2022-09-23T16:52:03.500Z,2.47
2022-09-23T16:54:54.546Z,2.65
2022-09-23T16:57:44.134Z,1.40
2022-09-23T17:00:50.266Z,3.03
2022-09-23T17:03:43.166Z,3.95
2022-09-23T17:06:32.484Z,4.65
2022-09-23T17:09:22.500Z,5.20
2022-09-23T17:12:14.191Z,3.05
2022-09-23T17:15:03.504Z,6.45
2022-09-23T17:17:53.122Z,4.43
2022-09-23T17:20:43.594Z,4.18
2022-09-23T17:24:08.548Z,3.38
2022-09-23T17:26:58.233Z,6.07
2022-09-23T17:29:47.752Z,3.65
2022-09-23T17:32:38.352Z,3.40
2022-09-23T17:35:28.014Z,4.13
2022-09-23T17:38:18.972Z,3.83
2022-09-23T17:41:08.762Z,5.13
2022-09-23T17:44:34.371Z,4.00
2022-09-23T17:47:24.244Z,3.70
2022-09-23T17:53:22.075Z,5.97
2022-09-23T17:56:14.557Z,2.97
2022-09-23T17:59:04.269Z,3.05
2022-09-23T18:01:54.171Z,3.10
2022-09-23T18:04:44.379Z,3.42
2022-09-23T18:07:34.873Z,2.55
2022-09-23T18:10:26.911Z,4.65
2022-09-23T18:13:17.476Z,3.92
2022-09-23T18:16:06.909Z,2.40
2022-09-23T18:18:56.553Z,4.30
2022-09-23T18:21:47.866Z,2.85
2022-09-23T18:24:41.175Z,3.60
2022-09-23T18:27:32.703Z,2.63
2022-09-23T18:30:22.916Z,7.60
2022-09-23T18:33:12.376Z,2.42
2022-09-23T18:36:02.053Z,3.65
2022-09-23T18:38:52.868Z,5.03
2022-09-23T18:41:43.068Z,3.15
2022-09-23T18:44:37.761Z,2.10
2022-09-23T18:47:44.517Z,3.67
2022-09-23T18:50:44.667Z,6.15
2022-09-23T18:53:37.219Z,4.15
2022-09-23T18:56:27.667Z,4.18
2022-09-23T18:59:22.597Z,4.65
2022-09-23T19:02:17.611Z,3.97
2022-09-23T19:05:07.390Z,6.75
2022-09-23T19:07:57.968Z,4.47
2022-09-23T19:10:58.106Z,6.05
2022-09-23T19:13:49.739Z,6.20
2022-09-23T19:16:42.125Z,4.95
2022-09-23T19:19:33.166Z,6.15
2022-09-23T19:22:27.701Z,5.57
2022-09-23T19:25:17.621Z,7.15
2022-09-23T19:28:11.467Z,6.47
2022-09-23T19:31:11.974Z,10.15
2022-09-23T19:34:02.519Z,11.63
2022-09-23T19:36:55.284Z,7.07
2022-09-23T19:39:49.255Z,7.80
2022-09-23T19:42:39.726Z,8.57
2022-09-23T19:45:29.531Z,12.48
2022-09-23T19:48:19.972Z,7.47
2022-09-23T19:51:14.145Z,10.68
2022-09-23T19:54:06.973Z,4.20
2022-09-23T19:56:59.486Z,6.20
2022-09-23T19:59:57.262Z,6.30
2022-09-23T20:02:54.637Z,5.63
2022-09-23T20:05:56.654Z,6.70
2022-09-23T20:08:47.822Z,8.48
2022-09-23T20:11:40.609Z,4.88
2022-09-23T20:14:35.710Z,3.40
2022-09-23T20:17:29.771Z,6.75
2022-09-23T20:20:24.421Z,7.65
2022-09-23T20:23:16.963Z,4.65
2022-09-23T20:26:28.127Z,7.28
2022-09-23T20:29:21.160Z,6.43
2022-09-23T20:32:17.257Z,5.18
2022-09-23T20:35:10.345Z,5.63
2022-09-23T20:38:07.861Z,6.53
2022-09-23T20:40:57.500Z,6.93
2022-09-23T20:43:49.345Z,4.85
2022-09-23T20:46:44.126Z,5.60
2022-09-23T20:49:38.583Z,4.57
2022-09-23T20:52:30.164Z,7.15
2022-09-23T20:55:21.933Z,5.68
2022-09-23T20:58:12.449Z,5.22
2022-09-23T21:01:03.896Z,4.63
2022-09-23T21:03:56.006Z,5.15
2022-09-23T21:06:45.565Z,5.80
2022-09-23T21:09:34.990Z,5.68
2022-09-23T21:26:20.555Z,4.90
2022-09-23T21:29:11.782Z,5.15
2022-09-23T21:32:02.046Z,6.50
2022-09-23T21:34:52.549Z,5.03
2022-09-23T21:37:43.212Z,4.72
2022-09-23T21:40:57.954Z,10.38
2022-09-23T21:43:50.052Z,6.45
2022-09-23T21:46:39.789Z,4.22
2022-09-23T21:49:29.328Z,8.25
2022-09-23T21:52:18.331Z,6.82
2022-09-23T21:55:08.411Z,4.07
2022-09-23T21:57:58.912Z,4.55
2022-09-23T22:00:50.181Z,7.53
2022-09-23T22:03:40.252Z,5.18
2022-09-23T22:06:30.846Z,5.93
2022-09-23T22:09:21.597Z,4.38
2022-09-23T22:12:13.098Z,4.85
2022-09-23T22:15:02.463Z,6.15
2022-09-23T22:17:52.959Z,4.63
2022-09-23T22:20:41.930Z,8.80
2022-09-23T22:23:30.946Z,5.20
2022-09-23T22:26:19.817Z,5.47
2022-09-23T22:29:27.595Z,4.55
2022-09-23T22:32:33.731Z,5.38
2022-09-23T22:35:24.329Z,4.53
2022-09-23T22:38:14.304Z,3.80
2022-09-23T22:41:03.956Z,4.28
2022-09-23T22:43:53.909Z,2.90
2022-09-23T22:46:43.051Z,6.22
2022-09-23T22:49:33.008Z,3.72
2022-09-23T22:52:24.763Z,5.25
2022-09-23T22:55:13.854Z,4.00
2022-09-23T22:58:21.164Z,4.60
2022-09-23T23:01:11.873Z,4.65
2022-09-23T23:04:02.759Z,6.20
2022-09-23T23:06:52.103Z,8.02
2022-09-23T23:09:44.960Z,4.78
2022-09-23T23:12:34.583Z,4.88
2022-09-23T23:15:24.053Z,3.47
2022-09-23T23:18:13.188Z,7.28
2022-09-23T23:21:10.355Z,6.53
2022-09-23T23:23:59.572Z,5.75
2022-09-23T23:26:51.451Z,5.10
2022-09-23T23:29:40.659Z,4.38
2022-09-23T23:32:29.748Z,5.80
2022-09-23T23:35:18.711Z,4.45
2022-09-23T23:38:07.923Z,4.28
2022-09-23T23:40:57.942Z,4.00
2022-09-23T23:43:50.153Z,3.45
2022-09-23T23:46:39.243Z,3.35
2022-09-23T23:49:29.235Z,4.63
2022-09-23T23:52:18.744Z,3.60
2022-09-23T23:55:08.500Z,4.28
2022-09-23T23:58:03.437Z,4.57
